Time,TemperatureF,DewpointF,PressureIn,WindDirection,WindDirectionDegrees,WindSpeedMPH,WindSpeedGustMPH,Humidity,HourlyPrecipIn,Conditions,Clouds,dailyrainin,SoftwareType,DateUTC
2013-03-02 00:01:00,27.0,20.0,-100.00,NW,320,4.0,9.0,76,-99.99,,,-99.99,,2013-03-02 06:01:00,
2013-03-02 00:11:00,27.0,20.0,-100.00,NW,305,6.0,10.0,76,-99.99,,,-99.99,,2013-03-02 06:11:00,
2013-03-02 00:21:00,26.0,20.0,-100.00,NW,315,6.0,11.0,75,-99.99,,,-99.99,,2013-03-02 06:21:00,
2013-03-02 00:32:00,26.0,20.0,-100.00,NW,315,6.0,11.0,75,-99.99,,,-99.99,,2013-03-02 06:32:00,
2013-03-02 00:42:00,26.0,19.0,-100.00,NW,310,5.0,10.0,74,-99.99,,,-99.99,,2013-03-02 06:42:00,
2013-03-02 00:52:00,26.0,19.0,-100.00,NNW,330,3.0,11.0,74,-99.99,,,-99.99,,2013-03-02 06:52:00,
2013-03-02 01:01:00,26.0,19.0,-100.00,NNW,330,3.0,11.0,74,-99.99,,,-99.99,,2013-03-02 07:01:00,
2013-03-02 01:11:00,26.0,18.0,-100.00,NW,325,4.0,11.0,73,-99.99,,,-99.99,,2013-03-02 07:11:00,
2013-03-02 01:21:00,26.0,19.0,-100.00,WNW,300,3.0,9.0,74,-99.99,,,-99.99,,2013-03-02 07:21:00,
2013-03-02 01:32:00,25.0,18.0,-100.00,NW,310,6.0,10.0,72,-99.99,,,-99.99,,2013-03-02 07:32:00,
2013-03-02 01:42:00,25.0,18.0,-100.00,NW,310,6.0,10.0,72,-99.99,,,-99.99,,2013-03-02 07:42:00,
2013-03-02 01:52:00,26.0,17.0,-100.00,NW,320,4.0,11.0,71,-99.99,,,-99.99,,2013-03-02 07:52:00,
2013-03-02 02:01:00,26.0,17.0,-100.00,NW,320,4.0,11.0,71,-99.99,,,-99.99,,2013-03-02 08:01:00,
2013-03-02 02:11:00,25.0,17.0,-100.00,NW,315,6.0,13.0,71,-99.99,,,-99.99,,2013-03-02 08:11:00,
2013-03-02 02:22:00,25.0,17.0,-100.00,NW,320,3.0,10.0,72,-99.99,,,-99.99,,2013-03-02 08:22:00,
2013-03-02 02:32:00,25.0,17.0,-100.00,NW,320,3.0,10.0,72,-99.99,,,-99.99,,2013-03-02 08:32:00,
2013-03-02 02:42:00,25.0,16.0,-100.00,NW,310,5.0,11.0,70,-99.99,,,-99.99,,2013-03-02 08:42:00,
2013-03-02 02:52:00,24.0,17.0,-100.00,WNW,300,4.0,9.0,72,-99.99,,,-99.99,,2013-03-02 08:52:00,
2013-03-02 03:02:00,24.0,17.0,-100.00,WNW,300,4.0,9.0,72,-99.99,,,-99.99,,2013-03-02 09:02:00,
2013-03-02 03:11:00,24.0,16.0,-100.00,WNW,295,7.0,14.0,71,-99.99,,,-99.99,,2013-03-02 09:11:00,
2013-03-02 03:21:00,24.0,16.0,-100.00,NW,310,6.0,11.0,72,-99.99,,,-99.99,,2013-03-02 09:21:00,
2013-03-02 03:32:00,24.0,16.0,-100.00,NW,310,6.0,11.0,72,-99.99,,,-99.99,,2013-03-02 09:32:00,
2013-03-02 03:42:00,24.0,16.0,-100.00,WNW,300,6.0,11.0,72,-99.99,,,-99.99,,2013-03-02 09:42:00,
2013-03-02 03:52:00,23.0,16.0,-100.00,NW,320,6.0,14.0,74,-99.99,,,-99.99,,2013-03-02 09:52:00,
2013-03-02 04:01:00,23.0,16.0,-100.00,NW,320,6.0,14.0,74,-99.99,,,-99.99,,2013-03-02 10:01:00,
2013-03-02 04:16:00,23.0,16.0,-100.00,NW,315,4.0,10.0,74,-99.99,,,-99.99,,2013-03-02 10:16:00,
2013-03-02 04:22:00,22.0,15.0,-100.00,NW,305,6.0,10.0,74,-99.99,,,-99.99,,2013-03-02 10:22:00,
2013-03-02 04:32:00,22.0,15.0,-100.00,NW,305,6.0,10.0,74,-99.99,,,-99.99,,2013-03-02 10:32:00,
2013-03-02 04:42:00,21.0,15.0,-100.00,NW,310,6.0,11.0,76,-99.99,,,-99.99,,2013-03-02 10:42:00,
2013-03-02 04:52:00,20.0,14.0,-100.00,NW,305,5.0,10.0,76,-99.99,,,-99.99,,2013-03-02 10:52:00,
2013-03-02 05:01:00,20.0,14.0,-100.00,NW,305,5.0,10.0,76,-99.99,,,-99.99,,2013-03-02 11:01:00,
2013-03-02 05:11:00,20.0,14.0,-100.00,NW,305,4.0,9.0,78,-99.99,,,-99.99,,2013-03-02 11:11:00,
2013-03-02 05:21:00,19.0,13.0,-100.00,NNW,330,2.0,7.0,79,-99.99,,,-99.99,,2013-03-02 11:21:00,
2013-03-02 05:32:00,19.0,13.0,-100.00,NNW,330,2.0,7.0,79,-99.99,,,-99.99,,2013-03-02 11:32:00,
2013-03-02 05:42:00,18.0,13.0,-100.00,NW,315,4.0,9.0,80,-99.99,,,-99.99,,2013-03-02 11:42:00,
2013-03-02 05:52:00,18.0,13.0,-100.00,North,350,1.0,6.0,81,-99.99,,,-99.99,,2013-03-02 11:52:00,
2013-03-02 06:02:00,18.0,13.0,-100.00,North,350,1.0,6.0,81,-99.99,,,-99.99,,2013-03-02 12:02:00,
2013-03-02 06:11:00,17.0,13.0,-100.00,NW,320,2.0,4.0,83,-99.99,,,-99.99,,2013-03-02 12:11:00,
2013-03-02 06:21:00,17.0,12.0,-100.00,North,0,0.0,4.0,82,-99.99,,,-99.99,,2013-03-02 12:21:00,
2013-03-02 06:33:00,17.0,12.0,-100.00,North,0,0.0,4.0,82,-99.99,,,-99.99,,2013-03-02 12:33:00,
2013-03-02 06:43:00,16.0,12.0,-100.00,NW,310,1.0,4.0,84,-99.99,,,-99.99,,2013-03-02 12:43:00,
2013-03-02 06:53:00,16.0,12.0,-100.00,WNW,295,0.0,4.0,84,-99.99,,,-99.99,,2013-03-02 12:53:00,
2013-03-02 07:01:00,16.0,12.0,-100.00,WNW,295,0.0,4.0,84,-99.99,,,-99.99,,2013-03-02 13:01:00,
2013-03-02 07:11:00,15.0,11.0,-100.00,NNW,335,1.0,3.0,83,-99.99,,,-99.99,,2013-03-02 13:11:00,
2013-03-02 07:22:00,15.0,11.0,-100.00,NE,35,1.0,3.0,83,-99.99,,,-99.99,,2013-03-02 13:22:00,
2013-03-02 07:32:00,15.0,11.0,-100.00,NE,35,1.0,3.0,83,-99.99,,,-99.99,,2013-03-02 13:32:00,
2013-03-02 07:42:00,15.0,11.0,-100.00,NW,325,4.0,6.0,82,-99.99,,,-99.99,,2013-03-02 13:42:00,
2013-03-02 07:52:00,15.0,10.0,-100.00,NW,320,4.0,9.0,80,-99.99,,,-99.99,,2013-03-02 13:52:00,
2013-03-02 08:01:00,15.0,10.0,-100.00,NW,320,4.0,9.0,80,-99.99,,,-99.99,,2013-03-02 14:01:00,
2013-03-02 08:11:00,15.0,10.0,-100.00,NW,315,4.0,7.0,80,-99.99,,,-99.99,,2013-03-02 14:11:00,
2013-03-02 08:21:00,16.0,10.0,-100.00,NW,305,4.0,8.0,78,-99.99,,,-99.99,,2013-03-02 14:21:00,
2013-03-02 08:32:00,16.0,10.0,-100.00,NW,305,4.0,8.0,78,-99.99,,,-99.99,,2013-03-02 14:32:00,
2013-03-02 08:42:00,17.0,10.0,-100.00,NNW,345,4.0,9.0,75,-99.99,,,-99.99,,2013-03-02 14:42:00,
2013-03-02 08:52:00,18.0,11.0,-100.00,NNW,340,4.0,7.0,71,-99.99,,,-99.99,,2013-03-02 14:52:00,
2013-03-02 09:02:00,18.0,11.0,-100.00,NNW,340,4.0,7.0,71,-99.99,,,-99.99,,2013-03-02 15:02:00,
2013-03-02 09:11:00,20.0,10.0,-100.00,NE,40,3.0,6.0,66,-99.99,,,-99.99,,2013-03-02 15:11:00,
2013-03-02 09:21:00,20.0,11.0,-100.00,NNW,335,2.0,9.0,65,-99.99,,,-99.99,,2013-03-02 15:21:00,
2013-03-02 09:32:00,20.0,11.0,-100.00,NNW,335,2.0,9.0,65,-99.99,,,-99.99,,2013-03-02 15:32:00,
2013-03-02 09:42:00,22.0,10.0,-100.00,NNW,345,2.0,7.0,61,-99.99,,,-99.99,,2013-03-02 15:42:00,
2013-03-02 09:52:00,24.0,11.0,-100.00,NE,40,3.0,6.0,57,-99.99,,,-99.99,,2013-03-02 15:52:00,
2013-03-02 10:02:00,24.0,11.0,-100.00,NE,40,3.0,6.0,57,-99.99,,,-99.99,,2013-03-02 16:02:00,
2013-03-02 10:11:00,24.0,11.0,-100.00,North,355,4.0,9.0,56,-99.99,,,-99.99,,2013-03-02 16:11:00,
2013-03-02 10:21:00,24.0,12.0,-100.00,NNW,345,4.0,6.0,58,-99.99,,,-99.99,,2013-03-02 16:21:00,
2013-03-02 10:32:00,24.0,12.0,-100.00,NNW,345,4.0,6.0,58,-99.99,,,-99.99,,2013-03-02 16:32:00,
2013-03-02 10:42:00,26.0,10.0,-100.00,North,0,4.0,7.0,52,-99.99,,,-99.99,,2013-03-02 16:42:00,
2013-03-02 10:52:00,27.0,12.0,-100.00,North,350,3.0,6.0,53,-99.99,,,-99.99,,2013-03-02 16:52:00,
2013-03-02 11:01:00,27.0,12.0,-100.00,North,350,3.0,6.0,53,-99.99,,,-99.99,,2013-03-02 17:01:00,
2013-03-02 11:11:00,25.0,12.0,-100.00,NW,315,4.0,9.0,57,-99.99,,,-99.99,,2013-03-02 17:11:00,
2013-03-02 11:21:00,28.0,12.0,-100.00,NNW,345,3.0,8.0,51,-99.99,,,-99.99,,2013-03-02 17:21:00,
2013-03-02 11:32:00,28.0,12.0,-100.00,NNW,345,3.0,8.0,51,-99.99,,,-99.99,,2013-03-02 17:32:00,
2013-03-02 11:42:00,27.0,12.0,-100.00,North,0,2.0,8.0,53,-99.99,,,-99.99,,2013-03-02 17:42:00,
2013-03-02 11:52:00,26.0,11.0,-100.00,NW,325,5.0,11.0,52,-99.99,,,-99.99,,2013-03-02 17:52:00,
2013-03-02 12:02:00,26.0,11.0,-100.00,NW,325,5.0,11.0,52,-99.99,,,-99.99,,2013-03-02 18:02:00,
2013-03-02 12:11:00,27.0,12.0,-100.00,North,0,4.0,9.0,52,-99.99,,,-99.99,,2013-03-02 18:11:00,
2013-03-02 12:22:00,29.0,15.0,-100.00,NNW,345,3.0,7.0,54,-99.99,,,-99.99,,2013-03-02 18:22:00,
2013-03-02 12:32:00,29.0,15.0,-100.00,NNW,345,3.0,7.0,54,-99.99,,,-99.99,,2013-03-02 18:32:00,
2013-03-02 12:42:00,30.0,14.0,-100.00,NNW,340,4.0,6.0,51,-99.99,,,-99.99,,2013-03-02 18:42:00,
2013-03-02 12:52:00,29.0,13.0,-100.00,North,0,5.0,10.0,51,-99.99,,,-99.99,,2013-03-02 18:52:00,
2013-03-02 13:01:00,29.0,13.0,-100.00,North,0,5.0,10.0,51,-99.99,,,-99.99,,2013-03-02 19:01:00,
2013-03-02 13:11:00,32.0,14.0,-100.00,North,350,4.0,8.0,47,-99.99,,,-99.99,,2013-03-02 19:11:00,
2013-03-02 13:22:00,31.0,14.0,-100.00,North,0,5.0,8.0,50,-99.99,,,-99.99,,2013-03-02 19:22:00,
2013-03-02 13:32:00,31.0,14.0,-100.00,North,0,5.0,8.0,50,-99.99,,,-99.99,,2013-03-02 19:32:00,
2013-03-02 13:42:00,30.0,15.0,-100.00,NW,325,4.0,9.0,53,-99.99,,,-99.99,,2013-03-02 19:42:00,
2013-03-02 13:52:00,30.0,15.0,-100.00,WSW,245,3.0,12.0,52,-99.99,,,-99.99,,2013-03-02 19:52:00,
2013-03-02 14:01:00,30.0,15.0,-100.00,WSW,245,3.0,12.0,52,-99.99,,,-99.99,,2013-03-02 20:01:00,
2013-03-02 14:11:00,30.0,15.0,-100.00,NW,320,2.0,12.0,53,-99.99,,,-99.99,,2013-03-02 20:11:00,
2013-03-02 14:22:00,30.0,13.0,-100.00,WNW,285,1.0,8.0,48,-99.99,,,-99.99,,2013-03-02 20:22:00,
2013-03-02 14:32:00,30.0,13.0,-100.00,WNW,285,1.0,8.0,48,-99.99,,,-99.99,,2013-03-02 20:32:00,
2013-03-02 14:42:00,29.0,13.0,-100.00,NW,310,6.0,10.0,50,-99.99,,,-99.99,,2013-03-02 20:42:00,
2013-03-02 14:53:00,29.0,13.0,-100.00,NW,310,5.0,10.0,50,-99.99,,,-99.99,,2013-03-02 20:53:00,
2013-03-02 15:02:00,29.0,13.0,-100.00,NW,310,5.0,10.0,50,-99.99,,,-99.99,,2013-03-02 21:02:00,
2013-03-02 15:11:00,29.0,13.0,-100.00,NW,310,4.0,10.0,50,-99.99,,,-99.99,,2013-03-02 21:11:00,
2013-03-02 15:22:00,30.0,12.0,-100.00,NW,310,5.0,11.0,46,-99.99,,,-99.99,,2013-03-02 21:22:00,
2013-03-02 15:32:00,30.0,12.0,-100.00,NW,310,5.0,11.0,46,-99.99,,,-99.99,,2013-03-02 21:32:00,
2013-03-02 15:42:00,30.0,13.0,-100.00,WNW,290,4.0,8.0,47,-99.99,,,-99.99,,2013-03-02 21:42:00,
2013-03-02 15:52:00,29.0,13.0,-100.00,NNW,340,2.0,11.0,49,-99.99,,,-99.99,,2013-03-02 21:52:00,
2013-03-02 16:02:00,29.0,13.0,-100.00,NNW,340,2.0,11.0,49,-99.99,,,-99.99,,2013-03-02 22:02:00,
2013-03-02 16:11:00,32.0,14.0,-100.00,North,0,4.0,8.0,47,-99.99,,,-99.99,,2013-03-02 22:11:00,
2013-03-02 16:22:00,31.0,13.0,-100.00,North,5,4.0,8.0,48,-99.99,,,-99.99,,2013-03-02 22:22:00,
2013-03-02 16:32:00,31.0,13.0,-100.00,North,5,4.0,8.0,48,-99.99,,,-99.99,,2013-03-02 22:32:00,
2013-03-02 16:42:00,30.0,12.0,-100.00,NW,305,4.0,9.0,47,-99.99,,,-99.99,,2013-03-02 22:42:00,
2013-03-02 16:52:00,30.0,12.0,-100.00,SW,235,5.0,13.0,48,-99.99,,,-99.99,,2013-03-02 22:52:00,
2013-03-02 17:01:00,30.0,12.0,-100.00,SW,235,5.0,13.0,48,-99.99,,,-99.99,,2013-03-02 23:01:00,
2013-03-02 17:11:00,29.0,11.0,-100.00,SSW,205,4.0,11.0,46,-99.99,,,-99.99,,2013-03-02 23:11:00,
2013-03-02 17:21:00,29.0,12.0,-100.00,NNW,330,4.0,8.0,48,-99.99,,,-99.99,,2013-03-02 23:21:00,
2013-03-02 17:32:00,29.0,12.0,-100.00,NNW,330,4.0,8.0,48,-99.99,,,-99.99,,2013-03-02 23:32:00,
2013-03-02 17:42:00,29.0,12.0,-100.00,WSW,250,4.0,9.0,48,-99.99,,,-99.99,,2013-03-02 23:42:00,
2013-03-02 17:52:00,28.0,11.0,-100.00,WSW,245,4.0,10.0,47,-99.99,,,-99.99,,2013-03-02 23:52:00,
2013-03-02 18:02:00,28.0,11.0,-100.00,WSW,245,4.0,10.0,47,-99.99,,,-99.99,,2013-03-03 00:02:00,
2013-03-02 18:11:00,28.0,10.0,-100.00,WNW,300,2.0,9.0,47,-99.99,,,-99.99,,2013-03-03 00:11:00,
2013-03-02 18:22:00,27.0,12.0,-100.00,NW,310,3.0,6.0,53,-99.99,,,-99.99,,2013-03-03 00:22:00,
2013-03-02 18:32:00,27.0,12.0,-100.00,NW,310,3.0,6.0,53,-99.99,,,-99.99,,2013-03-03 00:32:00,
2013-03-02 18:42:00,27.0,13.0,-100.00,WNW,290,1.0,8.0,55,-99.99,,,-99.99,,2013-03-03 00:42:00,
2013-03-02 18:52:00,26.0,11.0,-100.00,WNW,295,4.0,9.0,52,-99.99,,,-99.99,,2013-03-03 00:52:00,
2013-03-02 19:01:00,26.0,11.0,-100.00,WNW,295,4.0,9.0,52,-99.99,,,-99.99,,2013-03-03 01:01:00,
2013-03-02 19:11:00,26.0,13.0,-100.00,WNW,290,1.0,8.0,59,-99.99,,,-99.99,,2013-03-03 01:11:00,
2013-03-02 19:21:00,25.0,13.0,-100.00,West,270,2.0,6.0,59,-99.99,,,-99.99,,2013-03-03 01:21:00,
2013-03-02 19:32:00,25.0,13.0,-100.00,West,270,2.0,6.0,59,-99.99,,,-99.99,,2013-03-03 01:32:00,
2013-03-02 19:42:00,24.0,14.0,-100.00,WSW,240,2.0,6.0,64,-99.99,,,-99.99,,2013-03-03 01:42:00,
2013-03-02 19:52:00,23.0,14.0,-100.00,WSW,255,4.0,6.0,68,-99.99,,,-99.99,,2013-03-03 01:52:00,
2013-03-02 20:01:00,23.0,14.0,-100.00,WSW,255,4.0,6.0,68,-99.99,,,-99.99,,2013-03-03 02:01:00,
2013-03-02 20:11:00,22.0,14.0,-100.00,NW,305,1.0,6.0,70,-99.99,,,-99.99,,2013-03-03 02:11:00,
2013-03-02 20:21:00,22.0,15.0,-100.00,WNW,300,1.0,2.0,72,-99.99,,,-99.99,,2013-03-03 02:21:00,
2013-03-02 20:32:00,22.0,15.0,-100.00,WNW,300,1.0,2.0,72,-99.99,,,-99.99,,2013-03-03 02:32:00,
2013-03-02 20:42:00,22.0,15.0,-100.00,NW,305,2.0,4.0,73,-99.99,,,-99.99,,2013-03-03 02:42:00,
2013-03-02 20:52:00,22.0,14.0,-100.00,WNW,295,1.0,5.0,73,-99.99,,,-99.99,,2013-03-03 02:52:00,
2013-03-02 21:01:00,22.0,14.0,-100.00,WNW,295,1.0,5.0,73,-99.99,,,-99.99,,2013-03-03 03:01:00,
2013-03-02 21:11:00,21.0,14.0,-100.00,WNW,290,1.0,4.0,75,-99.99,,,-99.99,,2013-03-03 03:11:00,
2013-03-02 21:21:00,20.0,14.0,-100.00,WNW,290,0.0,4.0,77,-99.99,,,-99.99,,2013-03-03 03:21:00,
2013-03-02 21:32:00,20.0,14.0,-100.00,WNW,290,0.0,4.0,77,-99.99,,,-99.99,,2013-03-03 03:32:00,
2013-03-02 21:42:00,20.0,14.0,-100.00,NW,310,3.0,5.0,77,-99.99,,,-99.99,,2013-03-03 03:42:00,
2013-03-02 21:52:00,20.0,14.0,-100.00,WNW,295,3.0,7.0,75,-99.99,,,-99.99,,2013-03-03 03:52:00,
2013-03-02 22:01:00,20.0,14.0,-100.00,WNW,295,3.0,7.0,75,-99.99,,,-99.99,,2013-03-03 04:01:00,
2013-03-02 22:11:00,20.0,14.0,-100.00,WNW,300,1.0,5.0,77,-99.99,,,-99.99,,2013-03-03 04:11:00,
2013-03-02 22:21:00,19.0,13.0,-100.00,WNW,290,1.0,4.0,79,-99.99,,,-99.99,,2013-03-03 04:21:00,
2013-03-02 22:32:00,19.0,13.0,-100.00,WNW,290,1.0,4.0,79,-99.99,,,-99.99,,2013-03-03 04:32:00,
2013-03-02 22:42:00,19.0,13.0,-100.00,West,270,1.0,4.0,78,-99.99,,,-99.99,,2013-03-03 04:42:00,
2013-03-02 22:52:00,18.0,13.0,-100.00,NW,305,1.0,5.0,79,-99.99,,,-99.99,,2013-03-03 04:52:00,
2013-03-02 23:02:00,18.0,13.0,-100.00,NW,305,1.0,5.0,79,-99.99,,,-99.99,,2013-03-03 05:02:00,
2013-03-02 23:11:00,18.0,13.0,-100.00,WNW,285,0.0,3.0,79,-99.99,,,-99.99,,2013-03-03 05:11:00,
2013-03-02 23:22:00,18.0,12.0,-100.00,SW,230,0.0,3.0,79,-99.99,,,-99.99,,2013-03-03 05:22:00,
2013-03-02 23:32:00,18.0,12.0,-100.00,SW,230,0.0,3.0,79,-99.99,,,-99.99,,2013-03-03 05:32:00,
2013-03-02 23:42:00,17.0,12.0,-100.00,SW,230,0.0,1.0,78,-99.99,,,-99.99,,2013-03-03 05:42:00,
2013-03-02 23:52:00,16.0,11.0,-100.00,SW,220,1.0,4.0,81,-99.99,,,-99.99,,2013-03-03 05:52:00,